createdAt,value
2022-07-29T00:02:11.864Z,56.37
2022-07-29T00:05:42.070Z,56.45
2022-07-29T00:09:11.245Z,56.61
2022-07-29T00:12:38.334Z,56.74
2022-07-29T00:16:06.618Z,56.92
2022-07-29T00:20:07.967Z,57.08
2022-07-29T00:23:36.859Z,57.11
2022-07-29T00:27:04.541Z,57.30
2022-07-29T00:30:31.323Z,57.26
2022-07-29T00:33:59.021Z,57.33
2022-07-29T00:37:26.100Z,57.48
2022-07-29T00:40:53.879Z,57.58
2022-07-29T00:44:21.300Z,57.78
2022-07-29T00:47:49.015Z,57.87
2022-07-29T00:51:16.834Z,58.02
2022-07-29T00:54:45.018Z,58.11
2022-07-29T00:58:14.528Z,58.29
2022-07-29T01:01:43.412Z,58.39
2022-07-29T01:05:13.797Z,58.46
2022-07-29T01:08:41.409Z,58.55
2022-07-29T01:12:10.259Z,58.80
2022-07-29T01:15:49.374Z,58.77
2022-07-29T01:19:41.616Z,58.68
2022-07-29T01:23:47.191Z,58.81
2022-07-29T01:27:44.262Z,58.91
2022-07-29T01:31:24.360Z,58.95
2022-07-29T01:34:57.110Z,59.05
2022-07-29T01:38:30.502Z,59.05
2022-07-29T01:42:04.881Z,59.06
2022-07-29T01:45:42.104Z,59.15
2022-07-29T01:49:16.828Z,59.34
2022-07-29T01:52:50.329Z,59.42
2022-07-29T01:56:26.114Z,59.52
2022-07-29T01:59:56.563Z,59.65
2022-07-29T02:03:29.875Z,59.78
2022-07-29T02:06:57.493Z,59.80
2022-07-29T02:10:28.784Z,60.06
2022-07-29T02:14:11.293Z,60.13
2022-07-29T02:17:44.682Z,60.19
2022-07-29T02:21:15.159Z,60.15
2022-07-29T02:24:45.197Z,60.28
2022-07-29T02:28:15.507Z,60.32
2022-07-29T02:31:52.928Z,60.40
2022-07-29T02:35:25.512Z,60.42
2022-07-29T02:39:01.245Z,60.52
2022-07-29T02:42:34.407Z,60.54
2022-07-29T02:46:05.775Z,60.66
2022-07-29T02:49:43.875Z,60.74
2022-07-29T02:53:17.610Z,60.93
2022-07-29T02:56:48.230Z,61.14
2022-07-29T03:00:18.423Z,61.29
2022-07-29T03:03:48.822Z,61.43
2022-07-29T03:07:18.292Z,61.51
2022-07-29T03:10:49.156Z,61.55
2022-07-29T03:14:17.749Z,61.55
2022-07-29T03:17:46.745Z,61.64
2022-07-29T03:21:14.197Z,61.69
2022-07-29T03:24:41.279Z,61.73
2022-07-29T03:28:10.524Z,61.80
2022-07-29T03:31:37.506Z,61.82
2022-07-29T03:35:05.523Z,61.99
2022-07-29T03:38:36.575Z,61.93
2022-07-29T03:42:08.227Z,62.06
2022-07-29T03:45:36.666Z,62.10
2022-07-29T03:49:06.904Z,62.17
2022-07-29T03:52:38.493Z,62.21
2022-07-29T03:56:08.886Z,62.31
2022-07-29T03:59:37.406Z,62.36
2022-07-29T04:03:11.772Z,62.49
2022-07-29T04:06:45.745Z,62.65
2022-07-29T04:10:26.910Z,62.75
2022-07-29T04:13:58.894Z,62.82
2022-07-29T04:17:25.643Z,62.86
2022-07-29T04:20:52.601Z,62.88
2022-07-29T04:24:20.074Z,62.98
2022-07-29T04:28:00.856Z,63.04
2022-07-29T04:31:27.981Z,63.04
2022-07-29T04:34:54.842Z,63.13
2022-07-29T04:38:21.792Z,63.14
2022-07-29T04:41:49.135Z,63.11
2022-07-29T04:45:16.242Z,63.09
2022-07-29T04:48:43.681Z,63.13
2022-07-29T04:52:11.348Z,63.14
2022-07-29T04:55:39.262Z,63.07
2022-07-29T04:59:06.663Z,63.15
2022-07-29T05:02:33.769Z,63.09
2022-07-29T05:06:01.225Z,63.17
2022-07-29T05:09:28.115Z,63.25
2022-07-29T05:12:55.363Z,63.23
2022-07-29T05:16:25.301Z,63.35
2022-07-29T05:19:53.377Z,63.41
2022-07-29T05:23:20.503Z,63.33
2022-07-29T05:26:47.671Z,63.31
2022-07-29T05:30:16.116Z,63.32
2022-07-29T05:33:43.368Z,63.35
2022-07-29T05:37:10.564Z,63.44
2022-07-29T05:40:37.587Z,63.38
2022-07-29T05:44:04.768Z,63.53
2022-07-29T05:47:32.279Z,63.44
2022-07-29T05:50:59.513Z,63.41
2022-07-29T05:54:27.007Z,63.36
2022-07-29T05:58:01.026Z,63.23
2022-07-29T06:01:28.851Z,63.27
2022-07-29T06:04:56.397Z,63.21
2022-07-29T06:08:23.670Z,63.28
2022-07-29T06:11:50.560Z,63.30
2022-07-29T06:15:17.560Z,63.30
2022-07-29T06:18:45.589Z,63.32
2022-07-29T06:22:12.575Z,63.36
2022-07-29T06:25:42.074Z,63.14
2022-07-29T06:29:09.825Z,63.21
2022-07-29T06:32:43.048Z,63.14
2022-07-29T06:36:11.714Z,63.11
2022-07-29T06:39:40.540Z,62.95
2022-07-29T06:43:07.758Z,62.85
2022-07-29T06:46:35.877Z,62.68
2022-07-29T06:50:03.168Z,62.71
2022-07-29T06:53:36.847Z,62.56
2022-07-29T06:57:04.798Z,62.25
2022-07-29T07:00:32.927Z,62.25
2022-07-29T07:04:01.008Z,62.24
2022-07-29T07:07:28.217Z,62.06
2022-07-29T07:10:56.507Z,61.97
2022-07-29T07:14:24.136Z,61.81
2022-07-29T07:17:51.851Z,61.61
2022-07-29T07:21:19.674Z,61.36
2022-07-29T07:24:47.121Z,61.33
2022-07-29T07:28:14.847Z,61.20
2022-07-29T07:31:42.378Z,60.99
2022-07-29T07:35:15.883Z,60.82
2022-07-29T07:38:41.321Z,60.56
2022-07-29T07:42:08.572Z,60.41
2022-07-29T07:45:35.775Z,60.30
2022-07-29T07:49:02.853Z,60.14
2022-07-29T07:52:29.880Z,59.99
2022-07-29T07:56:13.005Z,59.82
2022-07-29T07:59:40.676Z,59.79
2022-07-29T08:03:16.606Z,59.69
2022-07-29T08:06:44.357Z,59.47
2022-07-29T08:10:12.507Z,59.24
2022-07-29T08:13:41.777Z,58.95
2022-07-29T08:17:09.123Z,58.67
2022-07-29T08:20:36.891Z,58.48
2022-07-29T08:24:19.509Z,58.40
2022-07-29T08:27:46.796Z,58.19
2022-07-29T08:31:14.791Z,57.88
2022-07-29T08:34:42.263Z,57.78
2022-07-29T08:38:09.713Z,57.40
2022-07-29T08:41:37.968Z,57.40
2022-07-29T08:45:05.535Z,56.98
2022-07-29T08:48:36.480Z,56.76
2022-07-29T08:52:05.885Z,56.61
2022-07-29T08:55:33.478Z,56.37
2022-07-29T08:59:06.763Z,55.98
2022-07-29T09:02:42.554Z,56.01
2022-07-29T09:06:10.824Z,55.68
2022-07-29T09:09:42.049Z,55.69
2022-07-29T09:13:10.105Z,55.40
2022-07-29T09:16:55.645Z,55.42
2022-07-29T09:20:25.174Z,55.21
2022-07-29T09:24:10.123Z,54.68
2022-07-29T09:27:37.804Z,54.43
2022-07-29T09:31:08.420Z,54.18
2022-07-29T09:34:36.996Z,53.43
2022-07-29T09:38:18.179Z,53.00
2022-07-29T09:42:03.916Z,52.67
2022-07-29T09:45:41.698Z,52.22
2022-07-29T09:49:38.366Z,52.02
2022-07-29T09:53:55.267Z,51.60
2022-07-29T09:57:39.498Z,51.31
2022-07-29T10:01:37.538Z,50.92
2022-07-29T10:05:22.467Z,50.59
2022-07-29T10:09:13.166Z,50.38
2022-07-29T10:12:55.786Z,49.97
2022-07-29T10:16:26.559Z,49.95
2022-07-29T10:19:54.430Z,49.86
2022-07-29T10:23:22.237Z,49.68
2022-07-29T10:26:49.954Z,49.35
2022-07-29T10:30:18.561Z,49.16
2022-07-29T10:33:56.761Z,48.93
2022-07-29T10:37:36.309Z,48.34
2022-07-29T10:41:32.443Z,47.98
2022-07-29T10:45:12.519Z,47.73
2022-07-29T10:48:59.571Z,47.73
2022-07-29T10:52:49.003Z,47.36
2022-07-29T10:56:28.817Z,47.10
2022-07-29T11:00:35.385Z,46.89
2022-07-29T11:04:05.943Z,46.55
2022-07-29T11:07:45.780Z,46.12
2022-07-29T11:11:44.119Z,45.98
2022-07-29T11:15:20.691Z,45.77
2022-07-29T11:19:26.715Z,45.67
2022-07-29T11:22:58.289Z,45.53
2022-07-29T11:26:27.473Z,45.09
2022-07-29T11:29:58.665Z,44.99
2022-07-29T11:37:28.929Z,44.81
2022-07-29T11:41:37.369Z,44.51
2022-07-29T11:45:41.659Z,44.34
2022-07-29T11:48:58.655Z,43.98
2022-07-29T11:56:34.414Z,43.78
2022-07-29T12:00:09.687Z,43.63
2022-07-29T12:03:41.118Z,43.31
2022-07-29T12:07:03.823Z,44.00
2022-07-29T12:07:16.827Z,43.30
2022-07-29T12:10:47.361Z,43.33
2022-07-29T12:14:30.928Z,43.26
2022-07-29T12:18:03.641Z,43.18
2022-07-29T12:21:31.358Z,42.82
2022-07-29T12:25:30.360Z,42.61
2022-07-29T12:28:51.145Z,42.26
2022-07-29T12:32:20.297Z,41.87
2022-07-29T12:36:03.577Z,41.83
2022-07-29T12:39:36.283Z,41.71
2022-07-29T12:43:17.691Z,41.53
2022-07-29T12:46:50.800Z,41.38
2022-07-29T12:50:36.253Z,41.28
2022-07-29T12:54:15.691Z,41.26
2022-07-29T12:57:53.618Z,41.01
2022-07-29T13:01:22.188Z,40.69
2022-07-29T13:05:00.352Z,40.48
2022-07-29T13:08:30.043Z,40.61
2022-07-29T13:11:57.688Z,40.63
2022-07-29T13:15:24.676Z,40.54
2022-07-29T13:19:05.265Z,40.49
2022-07-29T13:22:32.819Z,40.45
2022-07-29T13:26:10.359Z,40.53
2022-07-29T13:29:38.822Z,40.35
2022-07-29T13:33:09.495Z,40.52
2022-07-29T13:36:41.304Z,40.33
2022-07-29T13:40:11.212Z,39.74
2022-07-29T13:43:38.626Z,39.50
2022-07-29T13:47:06.857Z,39.32
2022-07-29T13:50:34.127Z,38.89
2022-07-29T13:54:01.291Z,38.77
2022-07-29T13:57:29.447Z,38.52
2022-07-29T14:00:59.686Z,38.04
2022-07-29T14:04:27.195Z,37.92
2022-07-29T14:07:54.806Z,37.79
2022-07-29T14:11:22.672Z,37.32
2022-07-29T14:14:52.230Z,36.69
2022-07-29T14:18:19.465Z,36.30
2022-07-29T14:21:46.697Z,36.48
2022-07-29T14:25:15.701Z,36.26
2022-07-29T14:28:45.972Z,36.05
2022-07-29T14:32:16.253Z,35.75
2022-07-29T14:35:43.613Z,35.36
2022-07-29T14:39:10.848Z,35.57
2022-07-29T14:42:39.020Z,35.37
2022-07-29T14:46:08.467Z,35.25
2022-07-29T14:49:36.143Z,34.99
2022-07-29T14:53:05.046Z,34.46
2022-07-29T14:56:37.289Z,34.23
2022-07-29T15:00:07.241Z,34.28
2022-07-29T15:03:36.824Z,34.30
2022-07-29T15:07:04.990Z,34.19
2022-07-29T15:10:33.341Z,34.04
2022-07-29T15:14:00.624Z,33.69
2022-07-29T15:17:28.075Z,33.47
2022-07-29T15:20:57.587Z,33.28
2022-07-29T15:24:27.662Z,33.04
2022-07-29T15:28:00.779Z,32.89
2022-07-29T15:31:28.885Z,33.01
2022-07-29T15:34:56.534Z,33.15
2022-07-29T15:38:28.603Z,32.96
2022-07-29T15:41:57.577Z,33.19
2022-07-29T15:45:25.712Z,32.91
2022-07-29T15:48:59.946Z,32.88
2022-07-29T15:52:30.017Z,32.46
2022-07-29T15:55:59.310Z,32.29
2022-07-29T15:59:27.804Z,32.19
2022-07-29T16:02:57.128Z,32.15
2022-07-29T16:06:24.449Z,32.15
2022-07-29T16:09:53.358Z,31.89
2022-07-29T16:13:21.007Z,31.91
2022-07-29T16:16:48.158Z,31.84
2022-07-29T16:20:15.971Z,31.88
2022-07-29T16:23:43.186Z,31.73
2022-07-29T16:27:10.429Z,31.93
2022-07-29T16:30:37.982Z,32.14
2022-07-29T16:34:07.650Z,32.03
2022-07-29T16:37:36.995Z,31.89
2022-07-29T16:41:06.514Z,32.26
2022-07-29T16:44:36.066Z,32.22
2022-07-29T16:48:06.279Z,32.36
2022-07-29T16:51:34.322Z,32.47
2022-07-29T16:55:02.900Z,32.72
2022-07-29T16:58:30.381Z,32.75
2022-07-29T17:01:58.308Z,32.74
2022-07-29T17:05:28.763Z,33.04
2022-07-29T17:08:56.284Z,33.19
2022-07-29T17:12:24.336Z,33.24
2022-07-29T17:15:57.560Z,33.33
2022-07-29T17:19:27.560Z,33.40
2022-07-29T17:22:54.790Z,33.59
2022-07-29T17:26:22.254Z,33.79
2022-07-29T17:29:51.081Z,33.83
2022-07-29T17:33:21.423Z,33.99
2022-07-29T17:36:50.307Z,34.14
2022-07-29T17:40:19.198Z,34.45
2022-07-29T17:43:48.361Z,34.45
2022-07-29T17:47:16.742Z,34.58
2022-07-29T17:50:45.720Z,34.65
2022-07-29T17:54:14.773Z,34.80
2022-07-29T17:57:41.929Z,35.04
2022-07-29T18:01:11.135Z,35.15
2022-07-29T18:04:40.498Z,35.30
2022-07-29T18:08:11.393Z,35.42
2022-07-29T18:11:39.101Z,35.77
2022-07-29T18:15:15.638Z,35.76
2022-07-29T18:18:45.207Z,35.97
2022-07-29T18:22:15.804Z,36.15
2022-07-29T18:25:43.361Z,36.39
2022-07-29T18:29:11.492Z,36.38
2022-07-29T18:32:38.911Z,36.39
2022-07-29T18:36:11.237Z,36.83
2022-07-29T18:39:40.997Z,36.72
2022-07-29T18:43:11.025Z,37.01
2022-07-29T18:46:38.651Z,37.00
2022-07-29T18:50:16.602Z,37.37
2022-07-29T18:53:48.381Z,37.66
2022-07-29T18:57:56.289Z,37.81
2022-07-29T19:01:12.401Z,38.13
2022-07-29T19:04:41.876Z,38.48
2022-07-29T19:08:12.940Z,38.85
2022-07-29T19:11:41.618Z,39.00
2022-07-29T19:15:11.035Z,39.18
2022-07-29T19:18:43.530Z,39.46
2022-07-29T19:22:16.641Z,39.90
2022-07-29T19:25:53.567Z,40.15
2022-07-29T19:29:23.850Z,40.53
2022-07-29T19:32:51.622Z,40.88
2022-07-29T19:36:19.562Z,41.17
2022-07-29T19:39:51.664Z,41.64
2022-07-29T19:43:50.632Z,41.84
2022-07-29T19:47:22.107Z,42.25
2022-07-29T19:50:59.555Z,42.46
2022-07-29T19:54:31.495Z,42.71
2022-07-29T19:58:09.411Z,43.01
2022-07-29T20:01:38.588Z,43.30
2022-07-29T20:05:12.678Z,43.49
2022-07-29T20:08:42.668Z,43.75
2022-07-29T20:12:15.029Z,43.97
2022-07-29T20:15:42.830Z,44.16
2022-07-29T20:19:10.829Z,44.29
2022-07-29T20:22:42.585Z,44.67
2022-07-29T20:26:13.325Z,44.80
2022-07-29T20:29:43.687Z,45.01
2022-07-29T20:33:16.544Z,45.23
2022-07-29T20:36:53.936Z,45.40
2022-07-29T20:40:32.006Z,45.60
2022-07-29T20:44:05.307Z,45.82
2022-07-29T20:47:39.620Z,45.93
2022-07-29T20:51:09.051Z,46.17
2022-07-29T20:54:43.527Z,46.38
2022-07-29T20:58:14.931Z,46.59
2022-07-29T21:01:43.311Z,46.64
2022-07-29T21:05:13.551Z,46.85
2022-07-29T21:08:43.184Z,46.98
2022-07-29T21:12:14.058Z,47.23
2022-07-29T21:15:42.619Z,47.37
2022-07-29T21:19:16.065Z,47.53
2022-07-29T21:22:47.334Z,47.78
2022-07-29T21:26:19.002Z,47.83
2022-07-29T21:29:50.027Z,48.07
2022-07-29T21:33:20.241Z,48.22
2022-07-29T21:36:50.507Z,48.32
2022-07-29T21:40:24.016Z,48.61
2022-07-29T21:43:55.742Z,48.75
2022-07-29T21:47:30.225Z,48.92
2022-07-29T21:51:01.781Z,49.15
2022-07-29T21:54:33.906Z,49.20
2022-07-29T21:58:05.749Z,49.51
2022-07-29T22:01:39.467Z,49.66
2022-07-29T22:05:11.948Z,49.67
2022-07-29T22:08:42.479Z,49.96
2022-07-29T22:12:12.853Z,50.12
2022-07-29T22:15:47.060Z,50.20
2022-07-29T22:19:16.365Z,50.29
2022-07-29T22:23:10.332Z,50.57
2022-07-29T22:26:57.860Z,50.71
2022-07-29T22:30:32.289Z,50.82
2022-07-29T22:34:06.545Z,51.07
2022-07-29T22:37:36.466Z,51.14
2022-07-29T22:41:08.587Z,51.32
2022-07-29T22:44:44.383Z,51.51
2022-07-29T22:48:27.231Z,51.59
2022-07-29T22:52:05.954Z,51.81
2022-07-29T22:55:37.723Z,51.75
2022-07-29T22:59:07.034Z,52.01
2022-07-29T23:02:36.652Z,52.17
2022-07-29T23:06:05.651Z,52.22
2022-07-29T23:09:34.614Z,52.52
2022-07-29T23:13:03.136Z,52.52
2022-07-29T23:16:31.580Z,52.64
2022-07-29T23:20:01.248Z,52.76
2022-07-29T23:23:33.905Z,52.97
2022-07-29T23:27:04.490Z,53.04
2022-07-29T23:30:37.313Z,53.19
2022-07-29T23:34:07.690Z,53.30
2022-07-29T23:37:35.092Z,53.42
2022-07-29T23:41:03.942Z,53.59
2022-07-29T23:44:31.669Z,53.71
2022-07-29T23:47:58.783Z,53.89
2022-07-29T23:51:25.912Z,53.95
2022-07-29T23:54:53.460Z,54.12
2022-07-29T23:58:20.714Z,54.21
